sensor_id;sensor_type;location;lat;lon;timestamp;pressure;altitude;pressure_sealevel;temperature;humidity
72857;BME280;62742;52.136;4.500;2023-05-10T00:01:59;100919.09;;;10.99;97.43
72857;BME280;62742;52.136;4.500;2023-05-10T00:04:25;100912.13;;;10.95;97.50
72857;BME280;62742;52.136;4.500;2023-05-10T00:06:53;100913.84;;;10.97;97.61
72857;BME280;62742;52.136;4.500;2023-05-10T00:09:20;100914.69;;;10.99;97.52
72857;BME280;62742;52.136;4.500;2023-05-10T00:11:46;100905.09;;;10.97;98.03
72857;BME280;62742;52.136;4.500;2023-05-10T00:14:12;100900.63;;;11.02;97.82
72857;BME280;62742;52.136;4.500;2023-05-10T00:16:39;100900.66;;;11.00;96.99
72857;BME280;62742;52.136;4.500;2023-05-10T00:19:05;100900.88;;;10.88;97.03
72857;BME280;62742;52.136;4.500;2023-05-10T00:21:31;100904.34;;;10.90;97.61
72857;BME280;62742;52.136;4.500;2023-05-10T00:23:59;100902.81;;;10.74;97.23
72857;BME280;62742;52.136;4.500;2023-05-10T00:26:25;100897.56;;;10.74;97.43
72857;BME280;62742;52.136;4.500;2023-05-10T00:28:52;100904.41;;;10.84;96.08
72857;BME280;62742;52.136;4.500;2023-05-10T00:31:18;100900.19;;;10.74;96.93
72857;BME280;62742;52.136;4.500;2023-05-10T00:33:44;100904.66;;;10.69;97.05
72857;BME280;62742;52.136;4.500;2023-05-10T00:36:11;100902.03;;;10.67;96.87
72857;BME280;62742;52.136;4.500;2023-05-10T00:38:37;100898.50;;;10.71;96.36
72857;BME280;62742;52.136;4.500;2023-05-10T00:41:03;100892.13;;;10.84;96.61
72857;BME280;62742;52.136;4.500;2023-05-10T00:43:30;100894.91;;;10.77;96.55
72857;BME280;62742;52.136;4.500;2023-05-10T00:45:59;100896.56;;;10.81;96.92
72857;BME280;62742;52.136;4.500;2023-05-10T00:48:26;100894.13;;;11.71;93.27
72857;BME280;62742;52.136;4.500;2023-05-10T00:50:52;100896.09;;;11.60;91.92
72857;BME280;62742;52.136;4.500;2023-05-10T00:53:19;100905.94;;;10.99;93.43
72857;BME280;62742;52.136;4.500;2023-05-10T00:55:45;100897.69;;;10.68;95.11
72857;BME280;62742;52.136;4.500;2023-05-10T00:58:11;100908.28;;;10.60;96.33
72857;BME280;62742;52.136;4.500;2023-05-10T01:00:37;100902.25;;;10.53;95.51
72857;BME280;62742;52.136;4.500;2023-05-10T01:03:10;100911.28;;;10.35;95.86
72857;BME280;62742;52.136;4.500;2023-05-10T01:05:37;100917.47;;;10.26;96.14
72857;BME280;62742;52.136;4.500;2023-05-10T01:08:03;100922.81;;;10.20;96.34
72857;BME280;62742;52.136;4.500;2023-05-10T01:10:30;100931.56;;;10.19;96.59
72857;BME280;62742;52.136;4.500;2023-05-10T01:12:57;100925.47;;;10.17;96.95
72857;BME280;62742;52.136;4.500;2023-05-10T01:15:27;100928.97;;;10.18;97.17
72857;BME280;62742;52.136;4.500;2023-05-10T01:17:53;100929.75;;;10.24;97.08
72857;BME280;62742;52.136;4.500;2023-05-10T01:20:20;100935.00;;;10.24;97.19
72857;BME280;62742;52.136;4.500;2023-05-10T01:29:05;100947.97;;;10.40;98.00
72857;BME280;62742;52.136;4.500;2023-05-10T01:37:42;100952.94;;;10.63;100.00
72857;BME280;62742;52.136;4.500;2023-05-10T01:40:23;100945.81;;;10.71;100.00
72857;BME280;62742;52.136;4.500;2023-05-10T01:42:59;100950.97;;;10.76;100.00
72857;BME280;62742;52.136;4.500;2023-05-10T01:45:39;100956.16;;;10.82;100.00
72857;BME280;62742;52.136;4.500;2023-05-10T01:48:21;100952.56;;;10.88;100.00
72857;BME280;62742;52.136;4.500;2023-05-10T01:50:52;100961.28;;;10.90;100.00
72857;BME280;62742;52.136;4.500;2023-05-10T01:53:20;100966.47;;;10.94;100.00
72857;BME280;62742;52.136;4.500;2023-05-10T01:55:51;100958.34;;;11.10;100.00
72857;BME280;62742;52.136;4.500;2023-05-10T01:58:22;100960.97;;;11.11;100.00
72857;BME280;62742;52.136;4.500;2023-05-10T02:00:53;100960.09;;;11.11;100.00
72857;BME280;62742;52.136;4.500;2023-05-10T02:03:20;100968.88;;;11.10;100.00
72857;BME280;62742;52.136;4.500;2023-05-10T02:05:49;100965.31;;;11.14;100.00
72857;BME280;62742;52.136;4.500;2023-05-10T02:08:17;100966.13;;;11.17;100.00
72857;BME280;62742;52.136;4.500;2023-05-10T02:10:46;100964.34;;;11.18;100.00
72857;BME280;62742;52.136;4.500;2023-05-10T02:13:16;100975.69;;;11.23;100.00
72857;BME280;62742;52.136;4.500;2023-05-10T02:15:43;100966.03;;;11.22;100.00
72857;BME280;62742;52.136;4.500;2023-05-10T02:18:13;100968.63;;;11.25;100.00
72857;BME280;62742;52.136;4.500;2023-05-10T02:20:41;100971.22;;;11.28;100.00
72857;BME280;62742;52.136;4.500;2023-05-10T02:23:11;100971.16;;;11.31;100.00
72857;BME280;62742;52.136;4.500;2023-05-10T02:25:39;100974.63;;;11.33;100.00
72857;BME280;62742;52.136;4.500;2023-05-10T02:28:07;100975.47;;;11.35;100.00
72857;BME280;62742;52.136;4.500;2023-05-10T02:30:36;100978.06;;;11.38;100.00
72857;BME280;62742;52.136;4.500;2023-05-10T02:33:04;100975.38;;;11.41;100.00
72857;BME280;62742;52.136;4.500;2023-05-10T02:35:32;100978.88;;;11.40;100.00
72857;BME280;62742;52.136;4.500;2023-05-10T02:38:01;100979.72;;;11.42;100.00
72857;BME280;62742;52.136;4.500;2023-05-10T02:40:29;100982.31;;;11.46;100.00
72857;BME280;62742;52.136;4.500;2023-05-10T02:42:57;100984.00;;;11.50;100.00
72857;BME280;62742;52.136;4.500;2023-05-10T02:45:27;100982.25;;;11.49;100.00
72857;BME280;62742;52.136;4.500;2023-05-10T02:47:56;100983.06;;;11.52;100.00
72857;BME280;62742;52.136;4.500;2023-05-10T02:50:25;100986.50;;;11.56;100.00
72857;BME280;62742;52.136;4.500;2023-05-10T02:52:56;100990.09;;;11.53;100.00
72857;BME280;62742;52.136;4.500;2023-05-10T02:55:33;100982.88;;;11.63;100.00
72857;BME280;62742;52.136;4.500;2023-05-10T02:58:06;100983.84;;;11.59;100.00
72857;BME280;62742;52.136;4.500;2023-05-10T03:00:32;100987.34;;;11.58;100.00
72857;BME280;62742;52.136;4.500;2023-05-10T03:02:58;100980.38;;;11.57;100.00
72857;BME280;62742;52.136;4.500;2023-05-10T03:05:24;100975.16;;;11.54;100.00
72857;BME280;62742;52.136;4.500;2023-05-10T03:07:51;100985.69;;;11.54;100.00
72857;BME280;62742;52.136;4.500;2023-05-10T03:10:18;100988.28;;;11.55;100.00
72857;BME280;62742;52.136;4.500;2023-05-10T03:15:47;100985.59;;;11.60;100.00
72857;BME280;62742;52.136;4.500;2023-05-10T03:18:44;100986.44;;;11.60;100.00
72857;BME280;62742;52.136;4.500;2023-05-10T03:21:17;100981.22;;;11.57;100.00
72857;BME280;62742;52.136;4.500;2023-05-10T03:23:51;100990.84;;;11.60;100.00
72857;BME280;62742;52.136;4.500;2023-05-10T03:26:26;100989.09;;;11.60;100.00
72857;BME280;62742;52.136;4.500;2023-05-10T03:28:53;100990.78;;;11.63;100.00
72857;BME280;62742;52.136;4.500;2023-05-10T03:31:21;100997.00;;;11.59;100.00
72857;BME280;62742;52.136;4.500;2023-05-10T03:33:48;100989.06;;;11.62;100.00
72857;BME280;62742;52.136;4.500;2023-05-10T03:36:16;100991.66;;;11.64;100.00
72857;BME280;62742;52.136;4.500;2023-05-10T03:38:43;100996.94;;;11.64;100.00
72857;BME280;62742;52.136;4.500;2023-05-10T03:41:10;100998.66;;;11.63;100.00
72857;BME280;62742;52.136;4.500;2023-05-10T03:43:36;100991.78;;;11.56;100.00
72857;BME280;62742;52.136;4.500;2023-05-10T03:46:03;100999.53;;;11.65;100.00
72857;BME280;62742;52.136;4.500;2023-05-10T03:48:31;100999.44;;;11.68;100.00
72857;BME280;62742;52.136;4.500;2023-05-10T03:50:58;100998.66;;;11.65;100.00
72857;BME280;62742;52.136;4.500;2023-05-10T03:53:24;101004.59;;;11.76;100.00
72857;BME280;62742;52.136;4.500;2023-05-10T03:55:50;101005.66;;;11.66;100.00
72857;BME280;62742;52.136;4.500;2023-05-10T03:58:17;101011.00;;;11.59;100.00
72857;BME280;62742;52.136;4.500;2023-05-10T04:00:44;101003.59;;;11.83;100.00
72857;BME280;62742;52.136;4.500;2023-05-10T04:03:11;100999.34;;;11.74;100.00
72857;BME280;62742;52.136;4.500;2023-05-10T04:05:38;101000.34;;;11.69;100.00
72857;BME280;62742;52.136;4.500;2023-05-10T04:08:05;101001.31;;;11.63;100.00
72857;BME280;62742;52.136;4.500;2023-05-10T04:10:32;101009.09;;;11.69;100.00
72857;BME280;62742;52.136;4.500;2023-05-10T04:12:58;101019.38;;;11.83;100.00
72857;BME280;62742;52.136;4.500;2023-05-10T04:15:24;101020.38;;;11.77;100.00
72857;BME280;62742;52.136;4.500;2023-05-10T04:17:50;101017.00;;;11.69;100.00
72857;BME280;62742;52.136;4.500;2023-05-10T04:20:17;101023.84;;;11.79;100.00
72857;BME280;62742;52.136;4.500;2023-05-10T04:22:43;101023.00;;;11.77;100.00
72857;BME280;62742;52.136;4.500;2023-05-10T04:25:10;101014.41;;;11.66;100.00
72857;BME280;62742;52.136;4.500;2023-05-10T04:27:36;101016.16;;;11.67;100.00
72857;BME280;62742;52.136;4.500;2023-05-10T04:30:02;101019.69;;;11.65;100.00
72857;BME280;62742;52.136;4.500;2023-05-10T04:32:29;101022.34;;;11.63;100.00
72857;BME280;62742;52.136;4.500;2023-05-10T04:34:55;101024.25;;;11.56;100.00
72857;BME280;62742;52.136;4.500;2023-05-10T04:37:21;101026.13;;;11.48;100.00
72857;BME280;62742;52.136;4.500;2023-05-10T04:39:48;101027.84;;;11.51;100.00
72857;BME280;62742;52.136;4.500;2023-05-10T04:42:14;101025.00;;;11.63;100.00
72857;BME280;62742;52.136;4.500;2023-05-10T04:44:41;101034.72;;;11.58;100.00
72857;BME280;62742;52.136;4.500;2023-05-10T04:47:07;101023.25;;;11.64;100.00
72857;BME280;62742;52.136;4.500;2023-05-10T04:49:34;101029.28;;;11.70;100.00
72857;BME280;62742;52.136;4.500;2023-05-10T04:52:00;101034.41;;;11.76;100.00
72857;BME280;62742;52.136;4.500;2023-05-10T04:54:26;101036.47;;;11.59;100.00
72857;BME280;62742;52.136;4.500;2023-05-10T04:56:52;101035.69;;;11.54;100.00
72857;BME280;62742;52.136;4.500;2023-05-10T04:59:19;101038.19;;;11.62;100.00
72857;BME280;62742;52.136;4.500;2023-05-10T05:01:45;101041.38;;;11.81;100.00
72857;BME280;62742;52.136;4.500;2023-05-10T05:04:11;101046.78;;;11.71;100.00
72857;BME280;62742;52.136;4.500;2023-05-10T05:06:37;101053.69;;;11.78;100.00
72857;BME280;62742;52.136;4.500;2023-05-10T05:09:03;101050.22;;;11.76;100.00
72857;BME280;62742;52.136;4.500;2023-05-10T05:11:30;101051.03;;;11.80;100.00
72857;BME280;62742;52.136;4.500;2023-05-10T05:13:56;101051.06;;;11.78;100.00
72857;BME280;62742;52.136;4.500;2023-05-10T05:16:24;101053.69;;;11.78;100.00
72857;BME280;62742;52.136;4.500;2023-05-10T05:18:51;101054.63;;;11.76;100.00
72857;BME280;62742;52.136;4.500;2023-05-10T05:21:18;101059.13;;;11.69;100.00
72857;BME280;62742;52.136;4.500;2023-05-10T05:23:45;101066.19;;;11.67;100.00
72857;BME280;62742;52.136;4.500;2023-05-10T05:26:12;101070.44;;;11.74;100.00
72857;BME280;62742;52.136;4.500;2023-05-10T05:28:38;101071.13;;;11.87;100.00
72857;BME280;62742;52.136;4.500;2023-05-10T05:31:04;101074.53;;;11.94;100.00
72857;BME280;62742;52.136;4.500;2023-05-10T05:33:31;101077.06;;;11.98;100.00
72857;BME280;62742;52.136;4.500;2023-05-10T05:35:59;101076.44;;;11.83;100.00
72857;BME280;62742;52.136;4.500;2023-05-10T05:38:26;101079.00;;;11.89;100.00
72857;BME280;62742;52.136;4.500;2023-05-10T05:40:53;101077.97;;;11.99;100.00
72857;BME280;62742;52.136;4.500;2023-05-10T05:43:19;101076.31;;;11.90;100.00
72857;BME280;62742;52.136;4.500;2023-05-10T05:45:45;101085.22;;;11.82;100.00
72857;BME280;62742;52.136;4.500;2023-05-10T05:48:11;101081.66;;;11.86;100.00
72857;BME280;62742;52.136;4.500;2023-05-10T05:50:37;101086.75;;;11.98;100.00
72857;BME280;62742;52.136;4.500;2023-05-10T05:53:03;101087.34;;;12.12;100.00
72857;BME280;62742;52.136;4.500;2023-05-10T05:55:30;101085.53;;;12.16;100.00
72857;BME280;62742;52.136;4.500;2023-05-10T05:57:57;101089.91;;;12.19;100.00
72857;BME280;62742;52.136;4.500;2023-05-10T06:00:24;101099.13;;;12.41;100.00
72857;BME280;62742;52.136;4.500;2023-05-10T06:02:50;101079.53;;;12.54;99.92
72857;BME280;62742;52.136;4.500;2023-05-10T06:05:16;101093.75;;;12.89;100.00
72857;BME280;62742;52.136;4.500;2023-05-10T06:07:42;101080.19;;;13.47;96.95
72857;BME280;62742;52.136;4.500;2023-05-10T06:10:09;101090.94;;;13.77;95.04
72857;BME280;62742;52.136;4.500;2023-05-10T06:12:35;101087.44;;;13.75;93.79
72857;BME280;62742;52.136;4.500;2023-05-10T06:15:02;101084.22;;;14.31;91.72
72857;BME280;62742;52.136;4.500;2023-05-10T06:17:29;101093.09;;;14.30;91.20
72857;BME280;62742;52.136;4.500;2023-05-10T06:19:55;101085.69;;;14.10;91.09
72857;BME280;62742;52.136;4.500;2023-05-10T06:22:22;101097.00;;;13.80;90.40
72857;BME280;62742;52.136;4.500;2023-05-10T06:24:48;101095.16;;;13.84;91.37
72857;BME280;62742;52.136;4.500;2023-05-10T06:27:15;101094.84;;;13.60;92.15
72857;BME280;62742;52.136;4.500;2023-05-10T06:29:41;101093.88;;;13.63;92.85
72857;BME280;62742;52.136;4.500;2023-05-10T06:32:07;101102.38;;;13.76;93.69
72857;BME280;62742;52.136;4.500;2023-05-10T06:34:34;101103.69;;;13.58;92.44
72857;BME280;62742;52.136;4.500;2023-05-10T06:37:00;101104.13;;;13.41;94.66
72857;BME280;62742;52.136;4.500;2023-05-10T06:39:26;101097.81;;;13.46;94.35
72857;BME280;62742;52.136;4.500;2023-05-10T06:41:52;101098.91;;;13.38;94.33
72857;BME280;62742;52.136;4.500;2023-05-10T06:44:20;101105.31;;;13.24;96.19
72857;BME280;62742;52.136;4.500;2023-05-10T06:46:46;101100.00;;;13.26;97.32
72857;BME280;62742;52.136;4.500;2023-05-10T06:49:12;101104.50;;;13.61;95.87
72857;BME280;62742;52.136;4.500;2023-05-10T06:51:38;101110.47;;;13.68;94.72
72857;BME280;62742;52.136;4.500;2023-05-10T06:54:05;101107.00;;;13.68;95.71
72857;BME280;62742;52.136;4.500;2023-05-10T06:56:32;101108.44;;;13.81;95.36
72857;BME280;62742;52.136;4.500;2023-05-10T06:58:58;101108.25;;;13.89;94.67
72857;BME280;62742;52.136;4.500;2023-05-10T07:01:25;101107.53;;;13.82;94.78
72857;BME280;62742;52.136;4.500;2023-05-10T07:03:51;101110.28;;;13.77;94.51
72857;BME280;62742;52.136;4.500;2023-05-10T07:06:18;101112.81;;;13.82;94.26
72857;BME280;62742;52.136;4.500;2023-05-10T07:08:44;101120.19;;;13.68;95.27
72857;BME280;62742;52.136;4.500;2023-05-10T07:11:10;101129.59;;;13.42;94.88
72857;BME280;62742;52.136;4.500;2023-05-10T07:13:37;101124.56;;;13.29;95.96
72857;BME280;62742;52.136;4.500;2023-05-10T07:16:04;101135.78;;;13.41;95.98
72857;BME280;62742;52.136;4.500;2023-05-10T07:18:32;101126.19;;;13.37;95.45
72857;BME280;62742;52.136;4.500;2023-05-10T07:20:58;101129.41;;;13.51;95.90
72857;BME280;62742;52.136;4.500;2023-05-10T07:23:24;101134.44;;;13.60;95.07
72857;BME280;62742;52.136;4.500;2023-05-10T07:25:51;101126.03;;;13.82;96.02
72857;BME280;62742;52.136;4.500;2023-05-10T07:28:18;101124.72;;;13.98;94.65
72857;BME280;62742;52.136;4.500;2023-05-10T07:30:44;101126.22;;;14.41;93.46
72857;BME280;62742;52.136;4.500;2023-05-10T07:33:12;101130.47;;;14.49;92.77
72857;BME280;62742;52.136;4.500;2023-05-10T07:35:39;101135.84;;;14.46;91.57
72857;BME280;62742;52.136;4.500;2023-05-10T07:38:05;101136.34;;;14.60;91.30
72857;BME280;62742;52.136;4.500;2023-05-10T07:40:32;101138.97;;;14.60;91.77
72857;BME280;62742;52.136;4.500;2023-05-10T07:42:58;101151.25;;;14.64;92.05
72857;BME280;62742;52.136;4.500;2023-05-10T07:45:27;101147.06;;;14.54;90.61
72857;BME280;62742;52.136;4.500;2023-05-10T07:47:54;101149.56;;;14.60;90.44
72857;BME280;62742;52.136;4.500;2023-05-10T07:50:20;101147.59;;;14.68;90.83
72857;BME280;62742;52.136;4.500;2023-05-10T07:52:47;101143.53;;;14.53;90.24
72857;BME280;62742;52.136;4.500;2023-05-10T07:55:13;101150.56;;;14.54;90.54
72857;BME280;62742;52.136;4.500;2023-05-10T07:57:40;101146.06;;;14.25;90.12
72857;BME280;62742;52.136;4.500;2023-05-10T08:00:07;101145.75;;;14.37;90.60
72857;BME280;62742;52.136;4.500;2023-05-10T08:02:34;101149.66;;;14.22;90.21
72857;BME280;62742;52.136;4.500;2023-05-10T08:05:01;101152.66;;;14.41;91.44
72857;BME280;62742;52.136;4.500;2023-05-10T08:07:27;101151.88;;;14.38;90.70
72857;BME280;62742;52.136;4.500;2023-05-10T08:09:53;101156.97;;;14.46;91.07
72857;BME280;62742;52.136;4.500;2023-05-10T08:12:19;101155.63;;;14.64;90.90
72857;BME280;62742;52.136;4.500;2023-05-10T08:14:46;101152.13;;;14.94;90.41
72857;BME280;62742;52.136;4.500;2023-05-10T08:17:12;101153.06;;;14.93;90.05
72857;BME280;62742;52.136;4.500;2023-05-10T08:19:38;101155.28;;;15.07;90.41
72857;BME280;62742;52.136;4.500;2023-05-10T08:22:04;101162.22;;;15.11;88.31
72857;BME280;62742;52.136;4.500;2023-05-10T08:24:31;101162.13;;;14.85;87.63
72857;BME280;62742;52.136;4.500;2023-05-10T08:26:57;101165.03;;;15.07;87.90
72857;BME280;62742;52.136;4.500;2023-05-10T08:29:23;101169.34;;;15.09;87.53
72857;BME280;62742;52.136;4.500;2023-05-10T08:31:49;101172.31;;;14.99;87.32
72857;BME280;62742;52.136;4.500;2023-05-10T08:34:16;101170.06;;;15.14;88.16
72857;BME280;62742;52.136;4.500;2023-05-10T08:36:42;101183.41;;;15.41;87.12
72857;BME280;62742;52.136;4.500;2023-05-10T08:39:08;101177.06;;;15.17;86.67
72857;BME280;62742;52.136;4.500;2023-05-10T08:41:34;101182.84;;;15.00;87.60
72857;BME280;62742;52.136;4.500;2023-05-10T08:44:04;101191.44;;;15.08;87.58
72857;BME280;62742;52.136;4.500;2023-05-10T08:46:33;101195.78;;;14.80;88.21
72857;BME280;62742;52.136;4.500;2023-05-10T08:49:04;101193.88;;;14.85;88.49
72857;BME280;62742;52.136;4.500;2023-05-10T08:51:35;101202.16;;;14.72;88.94
72857;BME280;62742;52.136;4.500;2023-05-10T08:54:06;101200.16;;;14.46;89.44
72857;BME280;62742;52.136;4.500;2023-05-10T08:56:32;101200.00;;;14.52;90.16
72857;BME280;62742;52.136;4.500;2023-05-10T08:58:59;101207.69;;;14.63;88.73
72857;BME280;62742;52.136;4.500;2023-05-10T09:01:26;101212.59;;;14.43;89.22
72857;BME280;62742;52.136;4.500;2023-05-10T09:03:53;101216.97;;;14.44;90.32
72857;BME280;62742;52.136;4.500;2023-05-10T09:06:19;101217.84;;;14.78;88.90
72857;BME280;62742;52.136;4.500;2023-05-10T09:08:46;101220.78;;;15.01;88.78
72857;BME280;62742;52.136;4.500;2023-05-10T09:11:13;101221.13;;;15.49;87.69
72857;BME280;62742;52.136;4.500;2023-05-10T09:13:40;101217.38;;;15.57;86.08
72857;BME280;62742;52.136;4.500;2023-05-10T09:16:07;101215.06;;;15.74;85.55
72857;BME280;62742;52.136;4.500;2023-05-10T09:18:33;101212.97;;;15.87;86.03
72857;BME280;62742;52.136;4.500;2023-05-10T09:21:00;101215.72;;;16.11;84.92
72857;BME280;62742;52.136;4.500;2023-05-10T09:23:26;101219.75;;;16.22;82.80
72857;BME280;62742;52.136;4.500;2023-05-10T09:26:04;101222.78;;;15.83;81.63
72857;BME280;62742;52.136;4.500;2023-05-10T09:28:34;101221.19;;;16.06;81.32
72857;BME280;62742;52.136;4.500;2023-05-10T09:31:18;101220.09;;;16.12;81.91
72857;BME280;62742;52.136;4.500;2023-05-10T09:33:45;101221.63;;;16.45;81.59
72857;BME280;62742;52.136;4.500;2023-05-10T09:36:15;101229.50;;;16.74;81.04
72857;BME280;62742;52.136;4.500;2023-05-10T09:38:45;101221.84;;;17.38;79.55
72857;BME280;62742;52.136;4.500;2023-05-10T09:41:22;101220.94;;;17.87;76.16
72857;BME280;62742;52.136;4.500;2023-05-10T09:43:49;101225.00;;;17.96;75.88
72857;BME280;62742;52.136;4.500;2023-05-10T09:46:15;101231.09;;;18.42;75.37
72857;BME280;62742;52.136;4.500;2023-05-10T09:48:43;101231.78;;;18.88;74.23
72857;BME280;62742;52.136;4.500;2023-05-10T09:51:20;101238.22;;;19.23;72.11
72857;BME280;62742;52.136;4.500;2023-05-10T09:53:48;101235.03;;;18.74;70.78
72857;BME280;62742;52.136;4.500;2023-05-10T09:56:34;101238.47;;;18.56;71.67
72857;BME280;62742;52.136;4.500;2023-05-10T09:59:06;101242.81;;;17.93;72.38
72857;BME280;62742;52.136;4.500;2023-05-10T10:01:35;101245.44;;;17.24;75.17
72857;BME280;62742;52.136;4.500;2023-05-10T10:04:05;101244.03;;;17.14;75.64
72857;BME280;62742;52.136;4.500;2023-05-10T10:06:36;101241.13;;;17.67;77.01
72857;BME280;62742;52.136;4.500;2023-05-10T10:09:04;101246.47;;;17.67;74.26
72857;BME280;62742;52.136;4.500;2023-05-10T10:11:34;101244.88;;;17.85;72.77
72857;BME280;62742;52.136;4.500;2023-05-10T10:14:02;101247.25;;;17.93;74.48
72857;BME280;62742;52.136;4.500;2023-05-10T10:16:28;101251.13;;;17.84;73.05
72857;BME280;62742;52.136;4.500;2023-05-10T10:18:55;101252.19;;;17.33;74.12
72857;BME280;62742;52.136;4.500;2023-05-10T10:21:22;101260.16;;;17.33;75.38
72857;BME280;62742;52.136;4.500;2023-05-10T10:23:49;101256.91;;;17.25;75.35
72857;BME280;62742;52.136;4.500;2023-05-10T10:26:16;101260.06;;;17.11;76.43
72857;BME280;62742;52.136;4.500;2023-05-10T10:29:00;101259.53;;;17.50;75.06
72857;BME280;62742;52.136;4.500;2023-05-10T10:34:25;101266.59;;;17.51;75.79
72857;BME280;62742;52.136;4.500;2023-05-10T10:36:54;101268.13;;;17.33;75.12
72857;BME280;62742;52.136;4.500;2023-05-10T10:39:22;101272.22;;;17.18;75.02
72857;BME280;62742;52.136;4.500;2023-05-10T10:41:54;101268.09;;;16.84;75.23
72857;BME280;62742;52.136;4.500;2023-05-10T10:49:32;101286.66;;;16.04;79.67
72857;BME280;62742;52.136;4.500;2023-05-10T10:54:59;101285.63;;;16.08;79.58
72857;BME280;62742;52.136;4.500;2023-05-10T10:57:30;101291.50;;;15.89;80.83
72857;BME280;62742;52.136;4.500;2023-05-10T11:03:08;101284.06;;;15.71;80.59
72857;BME280;62742;52.136;4.500;2023-05-10T11:05:39;101291.56;;;15.86;80.65
72857;BME280;62742;52.136;4.500;2023-05-10T11:08:07;101290.53;;;15.61;81.50
72857;BME280;62742;52.136;4.500;2023-05-10T11:10:35;101299.00;;;15.75;81.34
72857;BME280;62742;52.136;4.500;2023-05-10T11:13:03;101299.44;;;15.27;81.66
72857;BME280;62742;52.136;4.500;2023-05-10T11:15:34;101306.84;;;15.15;83.22
72857;BME280;62742;52.136;4.500;2023-05-10T11:18:22;101308.41;;;14.90;84.74
72857;BME280;62742;52.136;4.500;2023-05-10T11:20:50;101297.13;;;14.82;86.14
72857;BME280;62742;52.136;4.500;2023-05-10T11:23:18;101303.22;;;15.18;86.73
72857;BME280;62742;52.136;4.500;2023-05-10T11:25:45;101292.09;;;15.38;84.35
72857;BME280;62742;52.136;4.500;2023-05-10T11:28:12;101305.84;;;15.51;82.56
72857;BME280;62742;52.136;4.500;2023-05-10T11:30:39;101292.50;;;15.54;84.04
72857;BME280;62742;52.136;4.500;2023-05-10T11:33:07;101302.41;;;15.79;82.19
72857;BME280;62742;52.136;4.500;2023-05-10T11:35:37;101300.72;;;15.76;82.57
72857;BME280;62742;52.136;4.500;2023-05-10T11:38:05;101301.47;;;16.10;81.67
72857;BME280;62742;52.136;4.500;2023-05-10T11:40:35;101297.94;;;16.37;80.70
72857;BME280;62742;52.136;4.500;2023-05-10T11:43:02;101297.91;;;16.66;79.75
72857;BME280;62742;52.136;4.500;2023-05-10T11:45:33;101295.25;;;16.92;78.16
72857;BME280;62742;52.136;4.500;2023-05-10T11:47:59;101295.34;;;16.36;79.83
72857;BME280;62742;52.136;4.500;2023-05-10T11:50:27;101293.31;;;16.44;80.56
72857;BME280;62742;52.136;4.500;2023-05-10T11:52:54;101299.88;;;16.32;81.04
72857;BME280;62742;52.136;4.500;2023-05-10T11:55:21;101304.78;;;16.18;80.49
72857;BME280;62742;52.136;4.500;2023-05-10T11:57:53;101311.97;;;15.84;82.09
72857;BME280;62742;52.136;4.500;2023-05-10T12:00:21;101306.00;;;16.34;82.71
72857;BME280;62742;52.136;4.500;2023-05-10T12:02:48;101305.81;;;16.94;81.36
72857;BME280;62742;52.136;4.500;2023-05-10T12:05:14;101301.72;;;16.83;79.07
72857;BME280;62742;52.136;4.500;2023-05-10T12:07:41;101312.16;;;16.90;79.50
72857;BME280;62742;52.136;4.500;2023-05-10T12:10:10;101305.81;;;16.94;79.87
72857;BME280;62742;52.136;4.500;2023-05-10T12:12:44;101310.09;;;16.44;79.73
72857;BME280;62742;52.136;4.500;2023-05-10T12:15:18;101321.94;;;16.33;78.91
72857;BME280;62742;52.136;4.500;2023-05-10T12:17:48;101313.63;;;16.45;78.32
72857;BME280;62742;52.136;4.500;2023-05-10T12:22:52;101319.13;;;16.39;79.08
72857;BME280;62742;52.136;4.500;2023-05-10T12:25:21;101327.53;;;16.25;79.12
72857;BME280;62742;52.136;4.500;2023-05-10T12:27:56;101317.94;;;16.48;78.73
72857;BME280;62742;52.136;4.500;2023-05-10T12:30:24;101318.44;;;16.60;76.57
72857;BME280;62742;52.136;4.500;2023-05-10T12:32:52;101320.00;;;16.66;77.83
72857;BME280;62742;52.136;4.500;2023-05-10T12:35:21;101321.47;;;16.75;76.54
72857;BME280;62742;52.136;4.500;2023-05-10T12:37:52;101323.75;;;16.87;78.20
72857;BME280;62742;52.136;4.500;2023-05-10T12:40:18;101330.66;;;16.93;75.19
72857;BME280;62742;52.136;4.500;2023-05-10T12:42:45;101334.75;;;17.27;75.12
72857;BME280;62742;52.136;4.500;2023-05-10T12:45:11;101330.72;;;17.65;75.35
72857;BME280;62742;52.136;4.500;2023-05-10T12:47:38;101327.34;;;17.60;74.58
72857;BME280;62742;52.136;4.500;2023-05-10T12:50:05;101333.13;;;17.23;73.07
72857;BME280;62742;52.136;4.500;2023-05-10T12:52:31;101330.59;;;17.19;73.30
72857;BME280;62742;52.136;4.500;2023-05-10T12:55:01;101336.81;;;16.93;75.19
72857;BME280;62742;52.136;4.500;2023-05-10T12:57:28;101336.00;;;16.63;75.22
72857;BME280;62742;52.136;4.500;2023-05-10T12:59:55;101338.81;;;16.58;76.48
72857;BME280;62742;52.136;4.500;2023-05-10T13:02:21;101337.72;;;16.66;76.51
72857;BME280;62742;52.136;4.500;2023-05-10T13:04:49;101345.56;;;16.42;76.25
72857;BME280;62742;52.136;4.500;2023-05-10T13:07:15;101336.38;;;16.52;77.12
72857;BME280;62742;52.136;4.500;2023-05-10T13:09:41;101339.75;;;16.57;76.54
72857;BME280;62742;52.136;4.500;2023-05-10T13:12:08;101335.88;;;16.68;77.75
72857;BME280;62742;52.136;4.500;2023-05-10T13:14:34;101340.09;;;17.01;76.58
72857;BME280;62742;52.136;4.500;2023-05-10T13:17:00;101339.16;;;16.76;76.41
72857;BME280;62742;52.136;4.500;2023-05-10T13:19:27;101336.34;;;16.54;76.01
72857;BME280;62742;52.136;4.500;2023-05-10T13:21:53;101342.03;;;16.96;76.10